Time;durP1;ratioP1;P1;durP2;ratioP2;P2;SDS_P1;SDS_P2;PMS_P1;PMS_P2;Temp;Humidity;BMP_temperature;BMP_pressure;BME280_temperature;BME280_humidity;BME280_pressure;Samples;Min_cycle;Max_cycle;Signal;HPM_P1;HPM_P2
2023/06/03 00:00:31;;;;;;;1.60;1.50;;;;;;;;;;5095813;28;20885;-59
2023/06/03 00:03:00;;;;;;;1.97;0.90;;;;;;;;;;5095527;28;20485;-59
2023/06/03 00:05:31;;;;;;;1.50;1.10;;;;;;;;;;5095528;28;20453;-59
2023/06/03 00:07:58;;;;;;;1.67;1.10;;;;;;;;;;5095375;28;20478;-59
2023/06/03 00:10:27;;;;;;;4.20;1.47;;;;;;;;;;5095378;28;20443;-59
2023/06/03 00:12:54;;;;;;;1.73;1.53;;;;;;;;;;5095197;28;20422;-59
2023/06/03 00:15:22;;;;;;;1.17;1.07;;;;;;;;;;5095232;28;20946;-59
2023/06/03 00:17:49;;;;;;;2.20;1.40;;;;;;;;;;5095214;28;20444;-59
2023/06/03 00:20:16;;;;;;;2.60;0.93;;;;;;;;;;5095104;28;20458;-59
2023/06/03 00:22:45;;;;;;;3.70;1.30;;;;;;;;;;5094959;28;21012;-59
2023/06/03 00:25:12;;;;;;;1.70;1.23;;;;;;;;;;5095107;28;20990;-59
2023/06/03 00:27:41;;;;;;;2.50;1.30;;;;;;;;;;5095060;28;20538;-59
2023/06/03 00:30:08;;;;;;;2.20;1.10;;;;;;;;;;5095184;28;20455;-59
2023/06/03 00:32:36;;;;;;;1.27;1.10;;;;;;;;;;5094608;28;20447;-59
2023/06/03 00:35:03;;;;;;;2.50;1.50;;;;;;;;;;5094889;28;20882;-59
2023/06/03 00:37:30;;;;;;;1.77;1.17;;;;;;;;;;5095062;28;20418;-59
2023/06/03 00:39:58;;;;;;;2.30;1.00;;;;;;;;;;5095037;28;20516;-59
2023/06/03 00:42:27;;;;;;;2.80;1.50;;;;;;;;;;5094864;28;20487;-59
2023/06/03 00:44:56;;;;;;;2.90;1.30;;;;;;;;;;5094754;28;20421;-59
2023/06/03 00:47:24;;;;;;;1.50;1.20;;;;;;;;;;5094570;28;20548;-59
2023/06/03 00:49:54;;;;;;;2.03;1.13;;;;;;;;;;5094720;28;20512;-59
2023/06/03 00:52:25;;;;;;;4.20;1.17;;;;;;;;;;5094837;28;20446;-59
2023/06/03 00:54:52;;;;;;;1.00;0.90;;;;;;;;;;5094260;28;20460;-59
2023/06/03 00:57:21;;;;;;;2.23;1.17;;;;;;;;;;5094678;28;20422;-58
2023/06/03 00:59:50;;;;;;;3.70;1.00;;;;;;;;;;5094380;28;20426;-59
2023/06/03 01:02:19;;;;;;;2.80;1.30;;;;;;;;;;5094127;28;20899;-59
2023/06/03 01:04:48;;;;;;;2.60;1.47;;;;;;;;;;5094257;28;20446;-59
2023/06/03 01:07:18;;;;;;;1.30;1.20;;;;;;;;;;5094288;28;20429;-59
2023/06/03 01:09:53;;;;;;;1.10;1.00;;;;;;;;;;5094226;28;20421;-59
2023/06/03 01:12:26;;;;;;;16.70;1.70;;;;;;;;;;5094116;28;20822;-59
2023/06/03 01:14:57;;;;;;;2.40;1.70;;;;;;;;;;5094168;28;20448;-59
2023/06/03 01:17:27;;;;;;;1.40;1.10;;;;;;;;;;5094396;28;20458;-59
2023/06/03 01:19:56;;;;;;;2.10;1.27;;;;;;;;;;5094268;28;20792;-59
2023/06/03 01:22:26;;;;;;;3.77;1.20;;;;;;;;;;5093962;28;20498;-59
2023/06/03 01:25:06;;;;;;;2.20;1.17;;;;;;;;;;5093917;28;20426;-59
2023/06/03 01:27:33;;;;;;;3.50;1.20;;;;;;;;;;5094206;28;20572;-59
2023/06/03 01:30:00;;;;;;;1.00;0.90;;;;;;;;;;5093732;28;21003;-59
2023/06/03 01:32:28;;;;;;;1.60;1.33;;;;;;;;;;5093912;28;20425;-59
2023/06/03 01:34:55;;;;;;;1.67;1.20;;;;;;;;;;5093404;28;20447;-59
2023/06/03 01:37:23;;;;;;;2.80;1.23;;;;;;;;;;5093573;28;20558;-60
2023/06/03 01:39:51;;;;;;;2.00;1.03;;;;;;;;;;5093969;28;20454;-59
2023/06/03 01:42:24;;;;;;;1.50;1.30;;;;;;;;;;5093794;28;20932;-59
2023/06/03 01:44:57;;;;;;;1.40;1.30;;;;;;;;;;5093805;28;20447;-60
2023/06/03 01:47:24;;;;;;;1.40;1.30;;;;;;;;;;5093625;28;20426;-59
2023/06/03 01:49:51;;;;;;;2.17;1.23;;;;;;;;;;5093373;28;21008;-59
2023/06/03 01:52:22;;;;;;;2.47;1.50;;;;;;;;;;5093369;28;20456;-59
2023/06/03 01:54:49;;;;;;;2.20;1.50;;;;;;;;;;5093161;28;20432;-59
2023/06/03 01:57:17;;;;;;;2.70;1.20;;;;;;;;;;5093559;28;20433;-59
2023/06/03 01:59:45;;;;;;;1.17;1.07;;;;;;;;;;5093328;28;20465;-59
2023/06/03 02:02:15;;;;;;;1.23;1.13;;;;;;;;;;5092887;28;20454;-59
2023/06/03 02:04:47;;;;;;;1.77;1.33;;;;;;;;;;5093203;28;20470;-59
2023/06/03 02:07:15;;;;;;;1.20;0.90;;;;;;;;;;5093266;28;20429;-59
2023/06/03 02:09:46;;;;;;;1.23;1.13;;;;;;;;;;5093337;28;20483;-59
2023/06/03 02:12:15;;;;;;;1.37;0.90;;;;;;;;;;5093292;28;20454;-59
2023/06/03 02:14:42;;;;;;;2.90;1.30;;;;;;;;;;5093288;28;20458;-59
2023/06/03 02:17:15;;;;;;;3.10;1.20;;;;;;;;;;5092339;28;20455;-59
2023/06/03 02:19:47;;;;;;;2.23;1.30;;;;;;;;;;5093060;28;20443;-60
2023/06/03 02:22:15;;;;;;;1.87;1.20;;;;;;;;;;5093042;28;20425;-59
2023/06/03 02:24:42;;;;;;;1.60;1.27;;;;;;;;;;5093053;28;20459;-59
2023/06/03 02:27:14;;;;;;;1.33;1.23;;;;;;;;;;5093110;28;20458;-59
2023/06/03 02:29:52;;;;;;;2.27;1.40;;;;;;;;;;5092917;28;20417;-59
2023/06/03 02:32:20;;;;;;;2.50;1.30;;;;;;;;;;5093162;28;20443;-59
2023/06/03 02:34:50;;;;;;;2.97;1.30;;;;;;;;;;5093004;28;20424;-59
2023/06/03 02:37:18;;;;;;;1.60;1.10;;;;;;;;;;5092962;28;20426;-59
2023/06/03 02:39:46;;;;;;;2.10;1.57;;;;;;;;;;5092710;28;20483;-59
2023/06/03 02:42:13;;;;;;;1.47;1.33;;;;;;;;;;5092869;28;20461;-59
2023/06/03 02:44:43;;;;;;;2.60;1.20;;;;;;;;;;5092622;28;20904;-59
2023/06/03 02:47:13;;;;;;;2.60;1.30;;;;;;;;;;5093281;28;20970;-61
2023/06/03 02:49:45;;;;;;;1.73;1.13;;;;;;;;;;5092875;28;20479;-60
2023/06/03 02:52:12;;;;;;;1.27;1.17;;;;;;;;;;5092873;28;20758;-60
2023/06/03 02:54:39;;;;;;;1.67;1.10;;;;;;;;;;5092522;28;20513;-60
2023/06/03 02:57:08;;;;;;;2.60;1.53;;;;;;;;;;5092645;28;20934;-60
2023/06/03 02:59:36;;;;;;;1.40;1.30;;;;;;;;;;5093049;28;20768;-60
2023/06/03 03:02:03;;;;;;;3.13;1.30;;;;;;;;;;5092529;28;20458;-60
2023/06/03 03:04:36;;;;;;;1.60;1.20;;;;;;;;;;5092675;28;20491;-60
2023/06/03 03:07:07;;;;;;;1.80;1.10;;;;;;;;;;5092091;28;20478;-60
2023/06/03 03:09:41;;;;;;;1.27;1.17;;;;;;;;;;5092454;28;20421;-66
2023/06/03 03:12:11;;;;;;;1.57;1.30;;;;;;;;;;5092181;28;20424;-60
2023/06/03 03:14:38;;;;;;;2.67;1.50;;;;;;;;;;5092712;28;20451;-60
2023/06/03 03:17:05;;;;;;;2.67;1.23;;;;;;;;;;5092335;28;20421;-60
2023/06/03 03:19:33;;;;;;;2.70;1.00;;;;;;;;;;5092464;28;20418;-60
2023/06/03 03:22:03;;;;;;;2.30;0.90;;;;;;;;;;5092359;28;20461;-60
2023/06/03 03:24:31;;;;;;;1.73;1.63;;;;;;;;;;5092352;28;20489;-60
2023/06/03 03:26:58;;;;;;;3.20;1.00;;;;;;;;;;5092506;28;20450;-60
2023/06/03 03:29:26;;;;;;;1.70;1.13;;;;;;;;;;5095280;28;20428;-61
2023/06/03 03:31:59;;;;;;;2.70;1.10;;;;;;;;;;5095617;28;20429;-60
2023/06/03 03:34:30;;;;;;;1.30;1.20;;;;;;;;;;5095967;28;20453;-60
2023/06/03 03:36:57;;;;;;;4.30;1.30;;;;;;;;;;5096310;28;20431;-60
2023/06/03 03:39:24;;;;;;;3.60;1.37;;;;;;;;;;5095936;28;20986;-60
2023/06/03 03:41:55;;;;;;;1.80;1.23;;;;;;;;;;5095870;28;20496;-60
2023/06/03 03:44:25;;;;;;;1.60;1.10;;;;;;;;;;5095905;28;20457;-60
2023/06/03 03:46:56;;;;;;;2.20;1.00;;;;;;;;;;5095795;28;20455;-60
2023/06/03 03:49:29;;;;;;;4.90;1.80;;;;;;;;;;5096061;28;20486;-60
2023/06/03 03:51:56;;;;;;;3.00;1.30;;;;;;;;;;5095674;28;20425;-60
2023/06/03 03:54:23;;;;;;;1.30;1.20;;;;;;;;;;5095390;28;20994;-60
2023/06/03 03:56:55;;;;;;;1.07;0.97;;;;;;;;;;5095512;28;20446;-60
2023/06/03 03:59:27;;;;;;;1.60;1.27;;;;;;;;;;5095121;28;20420;-59
2023/06/03 04:02:06;;;;;;;3.50;1.20;;;;;;;;;;5095536;28;20453;-59
2023/06/03 04:04:41;;;;;;;1.83;1.17;;;;;;;;;;5095315;28;20532;-59
2023/06/03 04:07:20;;;;;;;1.23;1.00;;;;;;;;;;5095545;28;20431;-58
2023/06/03 04:09:51;;;;;;;1.57;1.40;;;;;;;;;;5095288;28;20908;-58
2023/06/03 04:12:28;;;;;;;1.30;1.20;;;;;;;;;;5095476;28;20455;-59
2023/06/03 04:14:57;;;;;;;2.23;1.23;;;;;;;;;;5094868;28;20487;-59
2023/06/03 04:17:25;;;;;;;1.40;0.90;;;;;;;;;;5095154;28;20462;-59
2023/06/03 04:19:55;;;;;;;1.60;1.10;;;;;;;;;;5095133;28;20453;-61
2023/06/03 04:22:26;;;;;;;2.40;1.20;;;;;;;;;;5095567;28;20417;-59
2023/06/03 04:24:56;;;;;;;1.53;1.43;;;;;;;;;;5095271;28;20824;-59
2023/06/03 04:27:30;;;;;;;1.40;1.00;;;;;;;;;;5095128;28;20422;-59
2023/06/03 04:30:00;;;;;;;1.83;1.30;;;;;;;;;;5095128;28;20479;-59
2023/06/03 04:32:32;;;;;;;4.47;1.33;;;;;;;;;;5095065;28;20508;-59
2023/06/03 04:34:59;;;;;;;1.33;0.93;;;;;;;;;;5094687;28;20442;-59
2023/06/03 04:37:27;;;;;;;2.53;1.20;;;;;;;;;;5095069;28;20536;-59
2023/06/03 04:39:54;;;;;;;1.10;0.97;;;;;;;;;;5094285;28;20773;-59
2023/06/03 04:42:22;;;;;;;3.10;1.47;;;;;;;;;;5094377;28;20443;-59
2023/06/03 04:44:50;;;;;;;3.20;1.30;;;;;;;;;;5094585;28;21043;-59
2023/06/03 04:47:17;;;;;;;2.43;1.30;;;;;;;;;;5094498;28;20425;-59
2023/06/03 04:49:47;;;;;;;1.33;1.23;;;;;;;;;;5094603;28;20486;-59
2023/06/03 04:52:14;;;;;;;1.50;1.40;;;;;;;;;;5094394;28;20432;-61
2023/06/03 04:54:44;;;;;;;1.83;1.60;;;;;;;;;;5094451;28;20422;-59
2023/06/03 04:57:12;;;;;;;3.00;1.17;;;;;;;;;;5094450;28;20418;-59
2023/06/03 04:59:40;;;;;;;2.30;1.20;;;;;;;;;;5094208;28;20452;-59
2023/06/03 05:02:10;;;;;;;2.17;1.70;;;;;;;;;;5094560;28;20505;-59
2023/06/03 05:04:41;;;;;;;1.40;1.30;;;;;;;;;;5094468;28;20867;-59
2023/06/03 05:07:10;;;;;;;1.47;1.37;;;;;;;;;;5094250;28;20447;-58
2023/06/03 05:09:38;;;;;;;5.83;1.63;;;;;;;;;;5094612;28;20419;-59
2023/06/03 05:12:10;;;;;;;2.17;1.30;;;;;;;;;;5093727;28;20413;-59
2023/06/03 05:14:37;;;;;;;4.07;1.80;;;;;;;;;;5094076;28;20413;-59
2023/06/03 05:17:07;;;;;;;2.10;1.37;;;;;;;;;;5093886;28;20422;-59
2023/06/03 05:19:41;;;;;;;1.53;1.20;;;;;;;;;;5094185;28;20935;-59
2023/06/03 05:22:09;;;;;;;1.57;1.27;;;;;;;;;;5093999;28;20463;-59
2023/06/03 05:24:40;;;;;;;2.40;1.30;;;;;;;;;;5093346;28;20467;-59
2023/06/03 05:27:12;;;;;;;1.60;1.50;;;;;;;;;;5093865;28;20446;-59
2023/06/03 05:29:41;;;;;;;6.60;1.47;;;;;;;;;;5093910;28;20444;-59
2023/06/03 05:32:13;;;;;;;2.57;1.40;;;;;;;;;;5093471;28;20977;-59
2023/06/03 05:34:43;;;;;;;5.17;2.57;;;;;;;;;;5093858;28;20443;-59
2023/06/03 05:37:11;;;;;;;4.30;1.70;;;;;;;;;;5093720;28;20447;-60
2023/06/03 05:39:39;;;;;;;1.53;1.43;;;;;;;;;;5093465;28;20432;-59
2023/06/03 05:42:08;;;;;;;3.20;2.40;;;;;;;;;;5093513;28;20439;-59
2023/06/03 05:44:35;;;;;;;2.03;1.47;;;;;;;;;;5093373;28;20447;-59
2023/06/03 05:47:04;;;;;;;1.37;1.27;;;;;;;;;;5093444;28;20496;-59
2023/06/03 05:49:33;;;;;;;1.50;1.40;;;;;;;;;;5093660;28;20778;-59
2023/06/03 05:52:02;;;;;;;1.77;1.60;;;;;;;;;;5092620;28;20806;-59
2023/06/03 05:54:31;;;;;;;2.23;1.20;;;;;;;;;;5093141;28;20413;-58
2023/06/03 05:57:01;;;;;;;3.53;1.53;;;;;;;;;;5093179;28;20472;-58
2023/06/03 05:59:29;;;;;;;1.67;1.57;;;;;;;;;;5093607;28;20425;-58
2023/06/03 06:01:57;;;;;;;1.67;1.57;;;;;;;;;;5092934;28;20447;-59
2023/06/03 06:04:24;;;;;;;2.10;1.70;;;;;;;;;;5092812;28;20573;-59
2023/06/03 06:06:56;;;;;;;2.43;1.70;;;;;;;;;;5093243;28;20436;-59
2023/06/03 06:09:24;;;;;;;6.30;1.40;;;;;;;;;;5093424;28;20465;-59
2023/06/03 06:11:56;;;;;;;2.97;1.60;;;;;;;;;;5093142;28;20419;-59
2023/06/03 06:14:27;;;;;;;2.47;1.63;;;;;;;;;;5092861;28;20803;-59
2023/06/03 06:16:59;;;;;;;3.67;1.53;;;;;;;;;;5093166;28;20906;-59
2023/06/03 06:19:26;;;;;;;1.50;1.37;;;;;;;;;;5092886;28;20948;-59
2023/06/03 06:21:54;;;;;;;2.20;1.23;;;;;;;;;;5093387;28;20458;-59
2023/06/03 06:24:21;;;;;;;3.30;1.57;;;;;;;;;;5092780;28;20860;-59
2023/06/03 06:26:55;;;;;;;2.00;1.80;;;;;;;;;;5093051;28;20421;-59
2023/06/03 06:29:23;;;;;;;2.30;1.43;;;;;;;;;;5092823;28;20517;-59
2023/06/03 06:31:51;;;;;;;2.60;1.43;;;;;;;;;;5092859;28;20971;-59
2023/06/03 06:34:20;;;;;;;2.27;1.40;;;;;;;;;;5092887;28;20421;-60
2023/06/03 06:36:52;;;;;;;2.63;1.40;;;;;;;;;;5092674;28;20925;-58
2023/06/03 06:39:48;;;;;;;1.43;1.33;;;;;;;;;;5092979;28;20435;-60
2023/06/03 06:42:18;;;;;;;1.33;1.20;;;;;;;;;;5092305;28;20443;-58
2023/06/03 06:44:47;;;;;;;3.17;1.70;;;;;;;;;;5092768;28;20498;-59
2023/06/03 06:47:16;;;;;;;2.53;1.60;;;;;;;;;;5092571;28;20486;-58
2023/06/03 06:49:43;;;;;;;3.53;1.90;;;;;;;;;;5092616;28;20447;-58
2023/06/03 06:52:10;;;;;;;4.23;1.27;;;;;;;;;;5092525;28;20537;-58
2023/06/03 06:54:37;;;;;;;3.13;1.90;;;;;;;;;;5092864;28;20432;-58
2023/06/03 06:57:05;;;;;;;2.10;1.63;;;;;;;;;;5092878;28;20528;-58
2023/06/03 06:59:34;;;;;;;2.40;1.97;;;;;;;;;;5092732;28;20439;-58
2023/06/03 07:02:01;;;;;;;2.03;1.40;;;;;;;;;;5092824;28;20878;-58
2023/06/03 07:04:29;;;;;;;1.70;1.50;;;;;;;;;;5095875;28;20478;-58
2023/06/03 07:06:56;;;;;;;4.73;1.57;;;;;;;;;;5096415;28;20456;-58
2023/06/03 07:09:23;;;;;;;1.97;1.43;;;;;;;;;;5096628;28;20485;-58
2023/06/03 07:11:52;;;;;;;3.03;1.40;;;;;;;;;;5096614;28;20545;-58
2023/06/03 07:14:18;;;;;;;2.50;1.60;;;;;;;;;;5096511;28;20497;-58
2023/06/03 07:16:49;;;;;;;2.57;1.60;;;;;;;;;;5096231;28;20494;-58
2023/06/03 07:19:16;;;;;;;2.20;1.30;;;;;;;;;;5096306;28;20454;-58
2023/06/03 07:21:43;;;;;;;5.00;1.50;;;;;;;;;;5096196;28;20457;-59
2023/06/03 07:24:11;;;;;;;3.80;1.80;;;;;;;;;;5096301;28;20884;-59
2023/06/03 07:26:40;;;;;;;3.07;1.47;;;;;;;;;;5096011;28;21009;-59
2023/06/03 07:29:09;;;;;;;1.90;1.70;;;;;;;;;;5096193;28;20422;-58
2023/06/03 07:31:36;;;;;;;2.03;1.50;;;;;;;;;;5096041;28;20538;-58
2023/06/03 07:34:05;;;;;;;2.50;1.33;;;;;;;;;;5095931;28;20474;-58
2023/06/03 07:36:34;;;;;;;2.03;1.57;;;;;;;;;;5096092;28;20543;-59
2023/06/03 07:39:04;;;;;;;4.30;1.53;;;;;;;;;;5095868;28;20451;-58
2023/06/03 07:41:37;;;;;;;4.00;1.60;;;;;;;;;;5096055;28;20508;-59
2023/06/03 07:44:05;;;;;;;1.93;1.53;;;;;;;;;;5095865;28;20550;-58
2023/06/03 07:46:37;;;;;;;2.47;1.73;;;;;;;;;;5095611;28;20485;-58
2023/06/03 07:49:06;;;;;;;1.43;1.10;;;;;;;;;;5095931;28;20516;-59
2023/06/03 07:51:34;;;;;;;2.53;1.67;;;;;;;;;;5095786;28;20478;-58
2023/06/03 07:54:01;;;;;;;2.73;2.03;;;;;;;;;;5095686;28;20439;-58
2023/06/03 07:56:29;;;;;;;4.13;1.57;;;;;;;;;;5095458;28;20575;-58
2023/06/03 07:58:57;;;;;;;2.77;1.50;;;;;;;;;;5095354;28;20448;-58
2023/06/03 08:01:25;;;;;;;2.80;1.67;;;;;;;;;;5095630;28;20447;-59
2023/06/03 08:03:52;;;;;;;2.60;1.80;;;;;;;;;;5095261;28;20850;-59
2023/06/03 08:06:21;;;;;;;1.93;1.47;;;;;;;;;;5095157;28;20985;-58
2023/06/03 08:08:48;;;;;;;2.63;1.67;;;;;;;;;;5095357;28;20499;-58
2023/06/03 08:11:15;;;;;;;2.03;1.83;;;;;;;;;;5095119;28;20457;-58
2023/06/03 08:13:42;;;;;;;2.07;1.40;;;;;;;;;;5095219;28;20937;-59
2023/06/03 08:16:09;;;;;;;3.47;1.63;;;;;;;;;;5094097;28;20459;-58
2023/06/03 08:18:42;;;;;;;1.60;1.50;;;;;;;;;;5095296;28;20423;-58
2023/06/03 08:21:09;;;;;;;2.57;1.57;;;;;;;;;;5095085;28;20426;-59
2023/06/03 08:23:38;;;;;;;1.53;1.27;;;;;;;;;;5094908;28;20508;-58
2023/06/03 08:26:05;;;;;;;2.03;1.23;;;;;;;;;;5095197;28;20817;-58
2023/06/03 08:28:32;;;;;;;4.20;1.80;;;;;;;;;;5094802;28;20452;-60
2023/06/03 08:31:00;;;;;;;2.93;1.57;;;;;;;;;;5095108;28;20538;-59
2023/06/03 08:33:27;;;;;;;1.83;1.10;;;;;;;;;;5094514;28;20538;-58
2023/06/03 08:35:55;;;;;;;3.40;1.17;;;;;;;;;;5094994;28;20949;-59
2023/06/03 08:38:26;;;;;;;1.20;1.10;;;;;;;;;;5094647;28;20964;-59
2023/06/03 08:40:56;;;;;;;1.53;1.40;;;;;;;;;;5095003;28;20516;-59
2023/06/03 08:43:28;;;;;;;4.07;1.30;;;;;;;;;;5094700;28;20452;-59
2023/06/03 08:46:03;;;;;;;1.47;1.37;;;;;;;;;;5094711;28;20562;-59
2023/06/03 08:48:33;;;;;;;3.40;1.60;;;;;;;;;;5094712;28;20461;-58
2023/06/03 08:51:07;;;;;;;1.70;1.60;;;;;;;;;;5094501;28;20453;-59
2023/06/03 08:53:42;;;;;;;2.87;1.50;;;;;;;;;;5094326;28;20448;-58
2023/06/03 08:56:14;;;;;;;2.80;1.27;;;;;;;;;;5093897;28;20516;-58
2023/06/03 08:58:45;;;;;;;3.57;2.00;;;;;;;;;;5094474;28;20448;-58
2023/06/03 09:01:14;;;;;;;2.80;1.37;;;;;;;;;;5094324;28;20434;-59
2023/06/03 09:03:42;;;;;;;2.43;1.20;;;;;;;;;;5094255;28;20496;-58
2023/06/03 09:06:09;;;;;;;3.43;1.17;;;;;;;;;;5094250;28;20569;-60
2023/06/03 09:08:38;;;;;;;1.67;1.10;;;;;;;;;;5094187;28;20453;-59
2023/06/03 09:11:06;;;;;;;1.57;1.20;;;;;;;;;;5094011;28;20811;-59
2023/06/03 09:13:35;;;;;;;2.63;1.10;;;;;;;;;;5093955;28;21023;-59
2023/06/03 09:16:04;;;;;;;3.47;1.17;;;;;;;;;;5093942;28;20505;-59
2023/06/03 09:18:31;;;;;;;1.43;1.00;;;;;;;;;;5094181;28;20808;-60
2023/06/03 09:20:58;;;;;;;2.20;1.30;;;;;;;;;;5094076;28;20482;-59
2023/06/03 09:23:25;;;;;;;1.37;1.27;;;;;;;;;;5094033;28;20536;-59
2023/06/03 09:25:52;;;;;;;1.97;1.60;;;;;;;;;;5093571;28;20486;-58
2023/06/03 09:28:19;;;;;;;1.73;1.07;;;;;;;;;;5093930;28;20456;-58
2023/06/03 09:30:47;;;;;;;3.63;1.17;;;;;;;;;;5094000;28;20508;-58
2023/06/03 09:33:14;;;;;;;3.13;1.27;;;;;;;;;;5093791;28;20486;-59
2023/06/03 09:35:41;;;;;;;2.33;1.07;;;;;;;;;;5093848;28;20451;-59
2023/06/03 09:38:08;;;;;;;2.93;1.30;;;;;;;;;;5093726;28;20879;-59
2023/06/03 09:40:36;;;;;;;5.90;1.40;;;;;;;;;;5093676;28;20449;-59
2023/06/03 09:43:11;;;;;;;5.33;1.10;;;;;;;;;;5093376;28;20794;-59
2023/06/03 09:45:38;;;;;;;1.97;1.27;;;;;;;;;;5093598;28;20480;-58
2023/06/03 09:48:06;;;;;;;5.10;1.40;;;;;;;;;;5093623;28;20504;-59
2023/06/03 09:50:35;;;;;;;1.33;1.23;;;;;;;;;;5093325;28;20449;-60
2023/06/03 09:53:18;;;;;;;7.30;1.43;;;;;;;;;;5093227;28;20532;-60
2023/06/03 09:55:47;;;;;;;3.30;1.33;;;;;;;;;;5093101;28;20573;-60
2023/06/03 09:58:14;;;;;;;1.40;1.03;;;;;;;;;;5093223;28;20523;-57
2023/06/03 10:00:48;;;;;;;2.17;0.97;;;;;;;;;;5093350;28;20519;-59
2023/06/03 10:03:19;;;;;;;2.47;1.40;;;;;;;;;;5093251;28;20850;-59
2023/06/03 10:05:46;;;;;;;1.73;1.10;;;;;;;;;;5093084;28;20541;-59
2023/06/03 10:08:13;;;;;;;2.33;1.20;;;;;;;;;;5093036;28;20448;-59
2023/06/03 10:10:55;;;;;;;3.47;1.13;;;;;;;;;;5093287;28;20449;-60
2023/06/03 10:13:23;;;;;;;2.70;1.20;;;;;;;;;;5092907;28;20448;-59
2023/06/03 10:15:51;;;;;;;2.90;0.97;;;;;;;;;;5093125;28;20821;-59
2023/06/03 10:18:19;;;;;;;1.50;1.30;;;;;;;;;;5092622;28;20461;-60
2023/06/03 10:20:46;;;;;;;4.17;1.20;;;;;;;;;;5093157;28;20532;-59
2023/06/03 10:23:13;;;;;;;2.20;1.10;;;;;;;;;;5092730;28;20542;-59
2023/06/03 10:25:42;;;;;;;5.00;1.27;;;;;;;;;;5092917;28;20450;-59
2023/06/03 10:28:11;;;;;;;1.57;1.30;;;;;;;;;;5092710;28;21007;-59
2023/06/03 10:30:40;;;;;;;1.43;1.23;;;;;;;;;;5092885;28;20524;-59
2023/06/03 10:33:09;;;;;;;2.30;1.03;;;;;;;;;;5092746;28;20454;-59
2023/06/03 10:35:41;;;;;;;2.80;1.10;;;;;;;;;;5093087;28;21163;-59
2023/06/03 10:38:13;;;;;;;1.53;1.23;;;;;;;;;;5093581;28;20445;-59
2023/06/03 10:40:40;;;;;;;1.80;1.10;;;;;;;;;;5097092;28;20816;-59
2023/06/03 10:43:08;;;;;;;1.53;1.13;;;;;;;;;;5096902;28;20468;-59
2023/06/03 10:45:35;;;;;;;8.10;1.87;;;;;;;;;;5096736;28;21008;-59
2023/06/03 10:48:05;;;;;;;2.17;1.20;;;;;;;;;;5097132;28;20941;-59
2023/06/03 10:50:38;;;;;;;6.63;1.10;;;;;;;;;;5096840;28;20450;-59
2023/06/03 10:53:11;;;;;;;4.13;1.10;;;;;;;;;;5097149;28;20453;-59
2023/06/03 10:55:46;;;;;;;7.30;2.00;;;;;;;;;;5096600;28;20470;-59
2023/06/03 10:58:16;;;;;;;7.03;1.30;;;;;;;;;;5097044;28;20450;-60
2023/06/03 11:00:56;;;;;;;5.30;1.30;;;;;;;;;;5096824;28;20799;-59
2023/06/03 11:03:24;;;;;;;3.40;1.70;;;;;;;;;;5096540;28;20456;-59
2023/06/03 11:05:51;;;;;;;2.40;1.30;;;;;;;;;;5096533;28;20446;-59
2023/06/03 11:08:37;;;;;;;2.30;1.23;;;;;;;;;;5096506;28;20457;-59
2023/06/03 11:11:06;;;;;;;1.90;1.10;;;;;;;;;;5096517;28;20451;-59
2023/06/03 11:13:45;;;;;;;1.83;1.00;;;;;;;;;;5096550;28;20453;-59
2023/06/03 11:16:13;;;;;;;6.50;1.83;;;;;;;;;;5096319;28;20457;-59
2023/06/03 11:18:42;;;;;;;1.53;1.30;;;;;;;;;;5096335;28;20446;-59
2023/06/03 11:21:41;;;;;;;1.77;1.23;;;;;;;;;;5096328;28;20455;-58
2023/06/03 11:24:08;;;;;;;1.87;1.00;;;;;;;;;;5095968;28;20442;-61
2023/06/03 11:26:37;;;;;;;2.33;1.03;;;;;;;;;;5095876;28;21065;-58
2023/06/03 11:29:05;;;;;;;1.60;1.43;;;;;;;;;;5096283;28;20479;-58
2023/06/03 11:31:35;;;;;;;2.40;1.40;;;;;;;;;;5096409;28;20451;-58
2023/06/03 11:34:21;;;;;;;1.27;1.17;;;;;;;;;;5095993;28;20849;-59
2023/06/03 11:36:48;;;;;;;1.40;1.07;;;;;;;;;;5096080;28;20523;-59
2023/06/03 11:39:17;;;;;;;2.37;1.23;;;;;;;;;;5096021;28;20450;-60
2023/06/03 11:42:06;;;;;;;2.53;1.13;;;;;;;;;;5096103;28;20924;-58
2023/06/03 11:44:34;;;;;;;1.67;1.30;;;;;;;;;;5095268;28;20442;-59
2023/06/03 11:47:02;;;;;;;1.30;1.00;;;;;;;;;;5095696;28;20486;-60
2023/06/03 11:49:29;;;;;;;2.00;1.63;;;;;;;;;;5095773;28;20461;-58
2023/06/03 11:52:01;;;;;;;1.10;1.00;;;;;;;;;;5095720;28;20439;-58
2023/06/03 11:54:29;;;;;;;8.77;1.20;;;;;;;;;;5095631;28;20543;-58
2023/06/03 11:56:58;;;;;;;3.23;1.20;;;;;;;;;;5095213;28;20588;-59
2023/06/03 11:59:32;;;;;;;1.10;1.00;;;;;;;;;;5095647;28;20539;-58
2023/06/03 12:02:03;;;;;;;1.63;1.13;;;;;;;;;;5095235;28;20525;-59
2023/06/03 12:04:30;;;;;;;1.10;1.00;;;;;;;;;;5095271;28;20453;-59
2023/06/03 12:06:58;;;;;;;2.43;1.37;;;;;;;;;;5095417;28;20882;-59
2023/06/03 12:09:30;;;;;;;1.47;1.00;;;;;;;;;;5095639;28;20468;-59
2023/06/03 12:11:59;;;;;;;2.33;1.17;;;;;;;;;;5094901;28;20453;-60
2023/06/03 12:14:27;;;;;;;1.20;1.10;;;;;;;;;;5094803;28;20438;-59
2023/06/03 12:16:55;;;;;;;1.17;1.00;;;;;;;;;;5095329;28;20465;-59
2023/06/03 12:19:23;;;;;;;4.70;1.40;;;;;;;;;;5095074;28;20545;-59
2023/06/03 12:21:57;;;;;;;2.83;1.03;;;;;;;;;;5095370;28;20468;-59
2023/06/03 12:24:30;;;;;;;1.40;1.30;;;;;;;;;;5095220;28;20930;-59
2023/06/03 12:26:57;;;;;;;1.50;1.30;;;;;;;;;;5095033;28;20569;-58
2023/06/03 12:29:33;;;;;;;3.60;3.30;;;;;;;;;;5095103;28;20472;-58
2023/06/03 12:32:03;;;;;;;1.20;1.10;;;;;;;;;;5095256;28;20478;-59
2023/06/03 12:34:34;;;;;;;1.43;1.33;;;;;;;;;;5094713;28;20480;-58
2023/06/03 12:37:02;;;;;;;1.30;1.00;;;;;;;;;;5094858;28;20487;-59
2023/06/03 12:39:46;;;;;;;2.00;1.17;;;;;;;;;;5094528;28;20447;-59
2023/06/03 12:42:19;;;;;;;1.40;1.10;;;;;;;;;;5094697;28;20459;-59
2023/06/03 12:44:47;;;;;;;2.30;1.73;;;;;;;;;;5094606;28;20949;-58
2023/06/03 12:47:16;;;;;;;1.40;1.30;;;;;;;;;;5094680;28;20482;-58
2023/06/03 12:49:45;;;;;;;1.80;1.13;;;;;;;;;;5094427;28;20481;-58
2023/06/03 12:52:13;;;;;;;1.27;1.10;;;;;;;;;;5094070;28;20479;-59
2023/06/03 12:54:47;;;;;;;4.83;1.13;;;;;;;;;;5094186;28;20799;-59
2023/06/03 12:57:16;;;;;;;1.73;0.97;;;;;;;;;;5094290;28;20450;-59
2023/06/03 13:00:04;;;;;;;1.03;0.83;;;;;;;;;;5094200;28;20456;-58
2023/06/03 13:02:33;;;;;;;3.20;2.10;;;;;;;;;;5093965;28;20443;-59
2023/06/03 13:05:00;;;;;;;1.20;1.10;;;;;;;;;;5094256;28;20981;-60
2023/06/03 13:07:27;;;;;;;2.10;0.97;;;;;;;;;;5094123;28;21122;-59
2023/06/03 13:09:59;;;;;;;1.10;0.93;;;;;;;;;;5094316;28;20454;-60
2023/06/03 13:12:27;;;;;;;1.23;1.07;;;;;;;;;;5094110;28;20452;-60
2023/06/03 13:14:54;;;;;;;3.40;1.00;;;;;;;;;;5093444;28;20457;-60
2023/06/03 13:17:21;;;;;;;2.07;1.43;;;;;;;;;;5094115;28;20487;-59
2023/06/03 13:19:50;;;;;;;2.20;1.20;;;;;;;;;;5093765;28;20513;-60
2023/06/03 13:22:17;;;;;;;1.67;0.97;;;;;;;;;;5094050;28;20451;-60
2023/06/03 13:24:44;;;;;;;2.00;1.30;;;;;;;;;;5093825;28;20443;-58
2023/06/03 13:27:12;;;;;;;1.70;1.10;;;;;;;;;;5093708;28;20471;-59
2023/06/03 13:29:39;;;;;;;1.20;1.10;;;;;;;;;;5093773;28;20545;-59
2023/06/03 13:32:07;;;;;;;1.67;1.20;;;;;;;;;;5093658;28;20549;-59
2023/06/03 13:34:34;;;;;;;2.17;1.00;;;;;;;;;;5093508;28;20450;-59
2023/06/03 13:37:05;;;;;;;3.30;1.20;;;;;;;;;;5093563;28;20459;-59
2023/06/03 13:39:32;;;;;;;1.10;1.00;;;;;;;;;;5093448;28;20447;-59
2023/06/03 13:41:59;;;;;;;1.97;0.90;;;;;;;;;;5093631;28;20787;-58
2023/06/03 13:44:29;;;;;;;3.13;1.53;;;;;;;;;;5093483;28;20455;-59
2023/06/03 13:46:59;;;;;;;2.00;0.93;;;;;;;;;;5093324;28;20456;-58
2023/06/03 13:49:27;;;;;;;1.67;0.80;;;;;;;;;;5093347;28;20451;-58
2023/06/03 13:51:56;;;;;;;1.47;1.30;;;;;;;;;;5092903;28;20439;-59
2023/06/03 13:54:24;;;;;;;2.27;0.90;;;;;;;;;;5093286;28;20439;-59
2023/06/03 13:56:53;;;;;;;3.13;1.50;;;;;;;;;;5092985;28;20471;-59
2023/06/03 13:59:24;;;;;;;1.20;1.00;;;;;;;;;;5093158;28;20443;-59
2023/06/03 14:01:52;;;;;;;3.53;1.10;;;;;;;;;;5092936;28;20806;-59
2023/06/03 14:04:19;;;;;;;0.93;0.80;;;;;;;;;;5093239;28;20529;-60
2023/06/03 14:06:46;;;;;;;1.70;0.87;;;;;;;;;;5092892;28;20505;-59
2023/06/03 14:09:13;;;;;;;3.30;1.00;;;;;;;;;;5092815;28;20494;-59
2023/06/03 14:11:43;;;;;;;4.50;1.20;;;;;;;;;;5092575;28;20443;-60
2023/06/03 14:14:10;;;;;;;4.17;1.27;;;;;;;;;;5092401;28;20451;-59
2023/06/03 14:16:39;;;;;;;1.90;1.00;;;;;;;;;;5092734;28;21007;-59
2023/06/03 14:19:07;;;;;;;1.20;1.00;;;;;;;;;;5092836;28;20949;-60
2023/06/03 14:21:34;;;;;;;3.20;1.20;;;;;;;;;;5092817;28;20445;-60
2023/06/03 14:24:01;;;;;;;1.60;1.30;;;;;;;;;;5092694;28;20435;-59
2023/06/03 14:26:34;;;;;;;1.40;1.10;;;;;;;;;;5092920;28;20934;-59
2023/06/03 14:29:03;;;;;;;2.03;1.10;;;;;;;;;;5092967;28;20837;-61
2023/06/03 14:31:30;;;;;;;1.63;1.00;;;;;;;;;;5092981;28;20478;-59
2023/06/03 14:33:57;;;;;;;1.13;1.00;;;;;;;;;;5092850;28;20457;-59
2023/06/03 14:36:24;;;;;;;3.40;2.00;;;;;;;;;;5092927;28;21021;-58
2023/06/03 14:38:51;;;;;;;4.50;1.17;;;;;;;;;;5092666;28;20481;-57
2023/06/03 14:41:18;;;;;;;1.73;0.90;;;;;;;;;;5092934;28;20845;-58
2023/06/03 14:43:45;;;;;;;5.83;1.10;;;;;;;;;;5092750;28;20475;-58
2023/06/03 14:46:14;;;;;;;1.57;1.00;;;;;;;;;;5092700;28;20538;-59
2023/06/03 14:48:42;;;;;;;2.73;1.30;;;;;;;;;;5092678;28;20517;-60
2023/06/03 14:51:09;;;;;;;1.20;1.10;;;;;;;;;;5092408;28;20453;-58
2023/06/03 14:53:36;;;;;;;1.33;1.20;;;;;;;;;;5092196;28;20534;-58
2023/06/03 14:56:03;;;;;;;2.03;1.20;;;;;;;;;;5091950;28;20478;-58